Unalaska, AK (99685)

3:44 AM AKDT on October 02, 2014 (GMT -0800)
Dutch Harbor | Change Station
CLOSE
Current Station
Airport
Location: Dutch Harbor,
Elevation: 13 ft
Nearby Weather Stations

Elev 13 ft 53.90 °N, 166.54 °W | Updated 10 minutes ago

Light Rain
Light Rain
50 °F
Feels Like 50 °F
N
9
Wind Variable Wind from NNE

Today
High -- | Low -- °F
--% Chance of Precip.
Yesterday
High -- | Low -- °F
Precip. -- in
9:11 AM 8:40 PM
First Quarter, 58% visible
Pressure 29.70 in
Visibility 10.0 miles
Clouds Mostly Cloudy 3000 ft
Overcast 3600 ft
Dew Point 45 °F
Humidity 82%
Rainfall 0.00 in
Snow Depth 0 in , 3 in , 0 in
UV 0 out of 12
Pollen Not available.
Air Quality Not available.
Flu Activity Not available.
SPECI PADU 021134Z AUTO 02008KT 10SM -RA BKN030 OVC036 10/07 A2970 RMK AO2 P0000

More Conditions Fewer Conditions

Pressure 29.70 in
Visibility 10.0 miles
Clouds Mostly Cloudy 3000 ft
Overcast 3600 ft
Dew Point 45 °F
Humidity 82%
Rainfall 0.00 in
Snow Depth 0 in , 3 in , 0 in
UV 0 out of 12
Pollen Not available.
Air Quality Not available.
Flu Activity Not available.
SPECI PADU 021134Z AUTO 02008KT 10SM -RA BKN030 OVC036 10/07 A2970 RMK AO2 P0000

More Conditions Fewer Conditions

10-Day Weather Forecast

Almanac

Astronomy

Oct. 02, 2014 Rise Set
Actual Time 9:11 AM AKDT 8:40 PM AKDT
Civil Twilight 8:35 AM AKDT 9:15 PM AKDT
Nautical Twilight 7:54 AM AKDT 9:56 PM AKDT
Astronomical Twilight 7:12 AM AKDT 10:38 PM AKDT
Moon 5:41 PM AKDT 1:52 AM AKDT
Length of Visible Light 12h 39m
Length of Day
11h 29m
Tomorrow will be 4m 16s shorter.
First Quarter, 58% of the Moon is Illuminated
Today
First Quarter
Oct 8
Full
Oct 15
Last Quarter
Oct 23
New
Oct 30
First Quarter

Today's Extremes

State Highs State Lows

Community

WunderPhotos

Upload Photos

1,758,221 photos uploaded!

WunderBlogs® & News

Nearby

Snow Depth

Station Depth Elevation
Summit Creek 0 in 1400 ft
Mt. Ryan 3 in 2800 ft
Upper Tsaina River 0 in 1750 ft
Long Lake 0 in 820 ft
Moraine 0 in 2100 ft

Earthquake Activity

City Distance Mag. Time & Date
No recent earthquake activity has been reported nearby.
Minimum magnitude displayed is 2.5.

Coastal Water Temperatures

Place Temperature
No Stations Reporting

Nearby Weather Stations